sensor_id;sensor_type;location;lat;lon;timestamp;P1;durP1;ratioP1;P2;durP2;ratioP2
15451;SDS011;7827;53.594;9.938;2023-03-24T00:02:05;11.10;;;6.43;;
15451;SDS011;7827;53.594;9.938;2023-03-24T00:04:34;9.55;;;5.63;;
15451;SDS011;7827;53.594;9.938;2023-03-24T00:07:08;9.02;;;5.28;;
15451;SDS011;7827;53.594;9.938;2023-03-24T00:09:42;7.95;;;5.43;;
15451;SDS011;7827;53.594;9.938;2023-03-24T00:12:13;9.68;;;5.45;;
15451;SDS011;7827;53.594;9.938;2023-03-24T00:14:44;8.45;;;4.93;;
15451;SDS011;7827;53.594;9.938;2023-03-24T00:17:13;8.23;;;5.28;;
15451;SDS011;7827;53.594;9.938;2023-03-24T00:19:43;8.38;;;4.32;;
15451;SDS011;7827;53.594;9.938;2023-03-24T00:22:11;9.32;;;4.80;;
15451;SDS011;7827;53.594;9.938;2023-03-24T00:24:45;9.25;;;4.82;;
15451;SDS011;7827;53.594;9.938;2023-03-24T00:27:15;9.23;;;4.80;;
15451;SDS011;7827;53.594;9.938;2023-03-24T00:29:44;9.52;;;4.82;;
15451;SDS011;7827;53.594;9.938;2023-03-24T00:32:12;9.88;;;4.50;;
15451;SDS011;7827;53.594;9.938;2023-03-24T00:34:41;10.80;;;4.90;;
15451;SDS011;7827;53.594;9.938;2023-03-24T00:37:09;9.27;;;4.72;;
15451;SDS011;7827;53.594;9.938;2023-03-24T00:39:40;6.30;;;4.00;;
15451;SDS011;7827;53.594;9.938;2023-03-24T00:42:10;6.22;;;4.40;;
15451;SDS011;7827;53.594;9.938;2023-03-24T00:44:39;6.43;;;4.07;;
15451;SDS011;7827;53.594;9.938;2023-03-24T00:47:10;8.80;;;3.40;;
15451;SDS011;7827;53.594;9.938;2023-03-24T00:49:39;8.43;;;3.63;;
15451;SDS011;7827;53.594;9.938;2023-03-24T00:52:12;7.18;;;3.78;;
15451;SDS011;7827;53.594;9.938;2023-03-24T00:54:46;9.18;;;4.47;;
15451;SDS011;7827;53.594;9.938;2023-03-24T00:57:18;9.02;;;4.07;;
15451;SDS011;7827;53.594;9.938;2023-03-24T00:59:47;8.40;;;4.20;;
15451;SDS011;7827;53.594;9.938;2023-03-24T01:02:17;8.23;;;4.18;;
15451;SDS011;7827;53.594;9.938;2023-03-24T01:04:50;8.55;;;4.78;;
15451;SDS011;7827;53.594;9.938;2023-03-24T01:07:21;9.23;;;4.28;;
15451;SDS011;7827;53.594;9.938;2023-03-24T01:09:52;10.02;;;4.70;;
15451;SDS011;7827;53.594;9.938;2023-03-24T01:12:26;10.55;;;4.88;;
15451;SDS011;7827;53.594;9.938;2023-03-24T01:14:57;7.60;;;4.55;;
15451;SDS011;7827;53.594;9.938;2023-03-24T01:17:28;7.28;;;4.70;;
15451;SDS011;7827;53.594;9.938;2023-03-24T01:19:57;9.50;;;4.82;;
15451;SDS011;7827;53.594;9.938;2023-03-24T01:22:26;6.82;;;4.30;;
15451;SDS011;7827;53.594;9.938;2023-03-24T01:24:56;10.02;;;4.47;;
15451;SDS011;7827;53.594;9.938;2023-03-24T01:27:27;8.98;;;4.72;;
15451;SDS011;7827;53.594;9.938;2023-03-24T01:29:57;10.82;;;4.85;;
15451;SDS011;7827;53.594;9.938;2023-03-24T01:32:27;10.27;;;4.78;;
15451;SDS011;7827;53.594;9.938;2023-03-24T01:34:56;8.32;;;4.45;;
15451;SDS011;7827;53.594;9.938;2023-03-24T01:37:25;8.82;;;4.90;;
15451;SDS011;7827;53.594;9.938;2023-03-24T01:39:53;5.70;;;4.07;;
15451;SDS011;7827;53.594;9.938;2023-03-24T01:42:22;10.88;;;4.70;;
15451;SDS011;7827;53.594;9.938;2023-03-24T01:44:56;9.20;;;4.43;;
15451;SDS011;7827;53.594;9.938;2023-03-24T01:47:28;6.28;;;4.05;;
15451;SDS011;7827;53.594;9.938;2023-03-24T01:50:00;9.70;;;4.53;;
15451;SDS011;7827;53.594;9.938;2023-03-24T01:52:31;6.10;;;3.90;;
15451;SDS011;7827;53.594;9.938;2023-03-24T01:55:04;8.93;;;4.88;;
15451;SDS011;7827;53.594;9.938;2023-03-24T01:57:41;10.52;;;4.80;;
15451;SDS011;7827;53.594;9.938;2023-03-24T02:00:16;8.80;;;4.28;;
15451;SDS011;7827;53.594;9.938;2023-03-24T02:03:11;7.28;;;4.78;;
15451;SDS011;7827;53.594;9.938;2023-03-24T02:05:51;7.53;;;4.55;;
15451;SDS011;7827;53.594;9.938;2023-03-24T02:08:25;8.35;;;4.80;;
15451;SDS011;7827;53.594;9.938;2023-03-24T02:11:01;14.98;;;4.88;;
15451;SDS011;7827;53.594;9.938;2023-03-24T02:13:38;9.82;;;4.32;;
15451;SDS011;7827;53.594;9.938;2023-03-24T02:16:12;11.68;;;5.00;;
15451;SDS011;7827;53.594;9.938;2023-03-24T02:19:09;10.57;;;5.22;;
15451;SDS011;7827;53.594;9.938;2023-03-24T02:22:23;9.60;;;4.72;;
15451;SDS011;7827;53.594;9.938;2023-03-24T02:28:45;9.93;;;5.13;;
15451;SDS011;7827;53.594;9.938;2023-03-24T02:31:42;7.93;;;5.07;;
15451;SDS011;7827;53.594;9.938;2023-03-24T02:34:51;7.07;;;4.88;;
15451;SDS011;7827;53.594;9.938;2023-03-24T02:37:53;8.40;;;4.68;;
15451;SDS011;7827;53.594;9.938;2023-03-24T02:41:13;7.32;;;4.75;;
15451;SDS011;7827;53.594;9.938;2023-03-24T02:43:54;10.13;;;5.32;;
15451;SDS011;7827;53.594;9.938;2023-03-24T02:46:35;7.75;;;4.70;;
15451;SDS011;7827;53.594;9.938;2023-03-24T02:49:16;10.75;;;4.88;;
15451;SDS011;7827;53.594;9.938;2023-03-24T02:51:56;10.35;;;5.00;;
15451;SDS011;7827;53.594;9.938;2023-03-24T02:54:37;10.25;;;5.63;;
15451;SDS011;7827;53.594;9.938;2023-03-24T02:57:18;5.85;;;4.47;;
15451;SDS011;7827;53.594;9.938;2023-03-24T03:00:04;12.85;;;5.80;;
15451;SDS011;7827;53.594;9.938;2023-03-24T03:03:11;8.65;;;5.45;;
15451;SDS011;7827;53.594;9.938;2023-03-24T03:05:47;7.90;;;5.32;;
15451;SDS011;7827;53.594;9.938;2023-03-24T03:08:24;10.50;;;5.60;;
15451;SDS011;7827;53.594;9.938;2023-03-24T03:10:59;8.88;;;5.38;;
15451;SDS011;7827;53.594;9.938;2023-03-24T03:13:35;9.65;;;5.40;;
15451;SDS011;7827;53.594;9.938;2023-03-24T03:16:11;8.77;;;5.50;;
15451;SDS011;7827;53.594;9.938;2023-03-24T03:18:48;10.15;;;5.32;;
15451;SDS011;7827;53.594;9.938;2023-03-24T03:21:23;10.68;;;5.65;;
15451;SDS011;7827;53.594;9.938;2023-03-24T03:23:59;10.15;;;5.70;;
15451;SDS011;7827;53.594;9.938;2023-03-24T03:26:34;8.00;;;4.85;;
15451;SDS011;7827;53.594;9.938;2023-03-24T03:29:07;11.02;;;5.80;;
15451;SDS011;7827;53.594;9.938;2023-03-24T03:31:43;11.98;;;5.70;;
15451;SDS011;7827;53.594;9.938;2023-03-24T03:34:19;13.48;;;5.90;;
15451;SDS011;7827;53.594;9.938;2023-03-24T03:37:00;8.70;;;5.78;;
15451;SDS011;7827;53.594;9.938;2023-03-24T03:39:37;8.43;;;6.05;;
15451;SDS011;7827;53.594;9.938;2023-03-24T03:42:14;7.55;;;5.32;;
15451;SDS011;7827;53.594;9.938;2023-03-24T03:44:44;8.50;;;5.55;;
15451;SDS011;7827;53.594;9.938;2023-03-24T03:47:13;8.32;;;5.38;;
15451;SDS011;7827;53.594;9.938;2023-03-24T03:49:44;10.70;;;5.35;;
15451;SDS011;7827;53.594;9.938;2023-03-24T03:52:13;10.18;;;6.13;;
15451;SDS011;7827;53.594;9.938;2023-03-24T03:54:44;12.25;;;6.75;;
15451;SDS011;7827;53.594;9.938;2023-03-24T03:57:14;10.30;;;6.32;;
15451;SDS011;7827;53.594;9.938;2023-03-24T04:00:13;9.18;;;6.10;;
15451;SDS011;7827;53.594;9.938;2023-03-24T04:03:05;9.35;;;6.05;;
15451;SDS011;7827;53.594;9.938;2023-03-24T04:05:54;10.82;;;5.97;;
15451;SDS011;7827;53.594;9.938;2023-03-24T04:08:32;10.25;;;5.82;;
15451;SDS011;7827;53.594;9.938;2023-03-24T04:11:34;9.63;;;5.47;;
15451;SDS011;7827;53.594;9.938;2023-03-24T04:14:34;7.03;;;5.78;;
15451;SDS011;7827;53.594;9.938;2023-03-24T04:21:25;12.90;;;6.18;;
15451;SDS011;7827;53.594;9.938;2023-03-24T04:24:24;7.97;;;5.68;;
15451;SDS011;7827;53.594;9.938;2023-03-24T04:27:10;8.70;;;5.40;;
15451;SDS011;7827;53.594;9.938;2023-03-24T04:29:54;6.35;;;5.13;;
15451;SDS011;7827;53.594;9.938;2023-03-24T04:32:38;10.07;;;5.72;;
15451;SDS011;7827;53.594;9.938;2023-03-24T04:35:20;6.97;;;5.05;;
15451;SDS011;7827;53.594;9.938;2023-03-24T04:38:20;5.82;;;5.15;;
15451;SDS011;7827;53.594;9.938;2023-03-24T04:41:08;8.80;;;5.28;;
15451;SDS011;7827;53.594;9.938;2023-03-24T04:43:39;8.43;;;5.53;;
15451;SDS011;7827;53.594;9.938;2023-03-24T04:46:08;7.57;;;4.75;;
15451;SDS011;7827;53.594;9.938;2023-03-24T04:49:05;7.47;;;5.40;;
15451;SDS011;7827;53.594;9.938;2023-03-24T04:51:37;6.95;;;5.65;;
15451;SDS011;7827;53.594;9.938;2023-03-24T04:54:12;6.25;;;5.13;;
15451;SDS011;7827;53.594;9.938;2023-03-24T04:56:48;6.95;;;5.28;;
15451;SDS011;7827;53.594;9.938;2023-03-24T04:59:31;7.82;;;5.50;;
15451;SDS011;7827;53.594;9.938;2023-03-24T05:02:03;5.13;;;4.63;;
15451;SDS011;7827;53.594;9.938;2023-03-24T05:04:32;10.45;;;5.28;;
15451;SDS011;7827;53.594;9.938;2023-03-24T05:07:24;7.32;;;5.80;;
15451;SDS011;7827;53.594;9.938;2023-03-24T05:09:56;7.38;;;5.68;;
15451;SDS011;7827;53.594;9.938;2023-03-24T05:12:25;7.03;;;5.93;;
15451;SDS011;7827;53.594;9.938;2023-03-24T05:15:12;7.63;;;5.50;;
15451;SDS011;7827;53.594;9.938;2023-03-24T05:17:42;7.00;;;5.60;;
15451;SDS011;7827;53.594;9.938;2023-03-24T05:20:11;6.25;;;5.20;;
15451;SDS011;7827;53.594;9.938;2023-03-24T05:22:45;8.27;;;5.90;;
15451;SDS011;7827;53.594;9.938;2023-03-24T05:25:15;6.07;;;5.47;;
15451;SDS011;7827;53.594;9.938;2023-03-24T05:27:44;6.35;;;5.32;;
15451;SDS011;7827;53.594;9.938;2023-03-24T05:30:22;6.65;;;5.38;;
15451;SDS011;7827;53.594;9.938;2023-03-24T05:32:58;6.75;;;6.03;;
15451;SDS011;7827;53.594;9.938;2023-03-24T05:35:27;8.13;;;5.55;;
15451;SDS011;7827;53.594;9.938;2023-03-24T05:37:57;8.95;;;5.90;;
15451;SDS011;7827;53.594;9.938;2023-03-24T05:40:26;8.60;;;5.50;;
15451;SDS011;7827;53.594;9.938;2023-03-24T05:43:04;9.25;;;5.53;;
15451;SDS011;7827;53.594;9.938;2023-03-24T05:45:38;6.43;;;5.38;;
15451;SDS011;7827;53.594;9.938;2023-03-24T05:48:09;6.82;;;5.35;;
15451;SDS011;7827;53.594;9.938;2023-03-24T05:50:56;5.97;;;5.28;;
15451;SDS011;7827;53.594;9.938;2023-03-24T05:53:26;8.35;;;5.32;;
15451;SDS011;7827;53.594;9.938;2023-03-24T05:56:09;7.88;;;5.75;;
15451;SDS011;7827;53.594;9.938;2023-03-24T05:58:56;6.00;;;5.22;;
15451;SDS011;7827;53.594;9.938;2023-03-24T06:01:45;6.78;;;5.20;;
15451;SDS011;7827;53.594;9.938;2023-03-24T06:04:20;6.47;;;5.20;;
15451;SDS011;7827;53.594;9.938;2023-03-24T06:06:53;7.53;;;4.97;;
15451;SDS011;7827;53.594;9.938;2023-03-24T06:09:29;6.60;;;5.30;;
15451;SDS011;7827;53.594;9.938;2023-03-24T06:12:04;6.22;;;5.18;;
15451;SDS011;7827;53.594;9.938;2023-03-24T06:14:35;6.00;;;5.35;;
15451;SDS011;7827;53.594;9.938;2023-03-24T06:17:09;5.97;;;5.35;;
15451;SDS011;7827;53.594;9.938;2023-03-24T06:19:42;8.90;;;5.68;;
15451;SDS011;7827;53.594;9.938;2023-03-24T06:22:37;5.25;;;4.68;;
15451;SDS011;7827;53.594;9.938;2023-03-24T06:25:11;6.10;;;4.80;;
15451;SDS011;7827;53.594;9.938;2023-03-24T06:27:53;5.78;;;5.07;;
15451;SDS011;7827;53.594;9.938;2023-03-24T06:30:23;5.40;;;4.90;;
15451;SDS011;7827;53.594;9.938;2023-03-24T06:32:51;5.88;;;4.88;;
15451;SDS011;7827;53.594;9.938;2023-03-24T06:35:22;5.68;;;4.20;;
15451;SDS011;7827;53.594;9.938;2023-03-24T06:37:58;5.60;;;4.50;;
15451;SDS011;7827;53.594;9.938;2023-03-24T06:40:28;5.43;;;4.90;;
15451;SDS011;7827;53.594;9.938;2023-03-24T06:42:57;5.43;;;4.80;;
15451;SDS011;7827;53.594;9.938;2023-03-24T06:45:27;5.00;;;4.50;;
15451;SDS011;7827;53.594;9.938;2023-03-24T06:47:56;5.10;;;4.55;;
15451;SDS011;7827;53.594;9.938;2023-03-24T06:50:25;4.90;;;4.50;;
15451;SDS011;7827;53.594;9.938;2023-03-24T06:53:00;5.38;;;4.38;;
15451;SDS011;7827;53.594;9.938;2023-03-24T06:55:32;5.60;;;4.70;;
15451;SDS011;7827;53.594;9.938;2023-03-24T06:58:02;7.28;;;5.00;;
15451;SDS011;7827;53.594;9.938;2023-03-24T07:00:40;5.03;;;4.40;;
15451;SDS011;7827;53.594;9.938;2023-03-24T07:03:25;5.90;;;4.88;;
15451;SDS011;7827;53.594;9.938;2023-03-24T07:06:13;5.43;;;4.93;;
15451;SDS011;7827;53.594;9.938;2023-03-24T07:08:43;7.47;;;5.50;;
15451;SDS011;7827;53.594;9.938;2023-03-24T07:11:14;4.90;;;3.75;;
15451;SDS011;7827;53.594;9.938;2023-03-24T07:13:49;4.45;;;3.42;;
15451;SDS011;7827;53.594;9.938;2023-03-24T07:16:18;4.70;;;3.90;;
15451;SDS011;7827;53.594;9.938;2023-03-24T07:18:53;4.55;;;3.88;;
15451;SDS011;7827;53.594;9.938;2023-03-24T07:21:21;6.32;;;3.50;;
15451;SDS011;7827;53.594;9.938;2023-03-24T07:23:50;4.28;;;3.85;;
15451;SDS011;7827;53.594;9.938;2023-03-24T07:26:24;5.63;;;3.92;;
15451;SDS011;7827;53.594;9.938;2023-03-24T07:29:00;4.38;;;3.08;;
15451;SDS011;7827;53.594;9.938;2023-03-24T07:31:43;3.83;;;2.70;;
15451;SDS011;7827;53.594;9.938;2023-03-24T07:34:14;3.72;;;2.50;;
15451;SDS011;7827;53.594;9.938;2023-03-24T07:36:42;6.18;;;2.95;;
15451;SDS011;7827;53.594;9.938;2023-03-24T07:39:14;5.55;;;2.53;;
15451;SDS011;7827;53.594;9.938;2023-03-24T07:41:43;3.70;;;2.70;;
15451;SDS011;7827;53.594;9.938;2023-03-24T07:44:26;6.38;;;2.83;;
15451;SDS011;7827;53.594;9.938;2023-03-24T07:46:55;8.95;;;2.17;;
15451;SDS011;7827;53.594;9.938;2023-03-24T07:49:24;3.60;;;2.20;;
15451;SDS011;7827;53.594;9.938;2023-03-24T07:52:00;7.60;;;2.38;;
15451;SDS011;7827;53.594;9.938;2023-03-24T07:54:35;7.95;;;2.58;;
15451;SDS011;7827;53.594;9.938;2023-03-24T07:57:05;7.95;;;1.90;;
15451;SDS011;7827;53.594;9.938;2023-03-24T07:59:54;5.00;;;2.13;;
15451;SDS011;7827;53.594;9.938;2023-03-24T08:02:40;7.63;;;2.38;;
15451;SDS011;7827;53.594;9.938;2023-03-24T08:05:36;6.90;;;2.22;;
15451;SDS011;7827;53.594;9.938;2023-03-24T08:08:24;6.90;;;2.10;;
15451;SDS011;7827;53.594;9.938;2023-03-24T08:10:53;5.03;;;2.10;;
15451;SDS011;7827;53.594;9.938;2023-03-24T08:13:23;10.05;;;2.67;;
15451;SDS011;7827;53.594;9.938;2023-03-24T08:15:52;7.47;;;2.33;;
15451;SDS011;7827;53.594;9.938;2023-03-24T08:18:20;10.25;;;2.88;;
15451;SDS011;7827;53.594;9.938;2023-03-24T08:20:53;14.10;;;2.90;;
15451;SDS011;7827;53.594;9.938;2023-03-24T08:23:26;16.95;;;2.50;;
15451;SDS011;7827;53.594;9.938;2023-03-24T08:25:55;9.38;;;2.38;;
15451;SDS011;7827;53.594;9.938;2023-03-24T08:28:25;7.60;;;3.10;;
15451;SDS011;7827;53.594;9.938;2023-03-24T08:30:54;10.05;;;3.15;;
15451;SDS011;7827;53.594;9.938;2023-03-24T08:33:22;10.52;;;2.60;;
15451;SDS011;7827;53.594;9.938;2023-03-24T08:35:52;6.88;;;2.20;;
15451;SDS011;7827;53.594;9.938;2023-03-24T08:38:23;7.07;;;2.20;;
15451;SDS011;7827;53.594;9.938;2023-03-24T08:40:56;5.90;;;2.33;;
15451;SDS011;7827;53.594;9.938;2023-03-24T08:43:29;8.90;;;2.83;;
15451;SDS011;7827;53.594;9.938;2023-03-24T08:45:58;10.52;;;2.50;;
15451;SDS011;7827;53.594;9.938;2023-03-24T08:48:28;11.60;;;3.00;;
15451;SDS011;7827;53.594;9.938;2023-03-24T08:50:58;8.13;;;2.42;;
15451;SDS011;7827;53.594;9.938;2023-03-24T08:53:26;6.75;;;2.30;;
15451;SDS011;7827;53.594;9.938;2023-03-24T08:55:55;7.53;;;2.25;;
15451;SDS011;7827;53.594;9.938;2023-03-24T08:58:23;9.15;;;2.10;;
15451;SDS011;7827;53.594;9.938;2023-03-24T09:00:53;7.30;;;2.25;;
15451;SDS011;7827;53.594;9.938;2023-03-24T09:03:22;6.97;;;2.42;;
15451;SDS011;7827;53.594;9.938;2023-03-24T09:05:53;11.63;;;2.70;;
15451;SDS011;7827;53.594;9.938;2023-03-24T09:08:24;10.63;;;2.70;;
15451;SDS011;7827;53.594;9.938;2023-03-24T09:10:54;10.07;;;2.88;;
15451;SDS011;7827;53.594;9.938;2023-03-24T09:13:22;13.65;;;2.95;;
15451;SDS011;7827;53.594;9.938;2023-03-24T09:15:51;7.38;;;2.90;;
15451;SDS011;7827;53.594;9.938;2023-03-24T09:18:27;13.32;;;3.10;;
15451;SDS011;7827;53.594;9.938;2023-03-24T09:20:56;13.60;;;3.13;;
15451;SDS011;7827;53.594;9.938;2023-03-24T09:23:24;10.52;;;2.72;;
15451;SDS011;7827;53.594;9.938;2023-03-24T09:25:54;8.13;;;2.17;;
15451;SDS011;7827;53.594;9.938;2023-03-24T09:28:23;13.85;;;2.63;;
15451;SDS011;7827;53.594;9.938;2023-03-24T09:30:56;10.65;;;2.90;;
15451;SDS011;7827;53.594;9.938;2023-03-24T09:33:26;10.05;;;2.53;;
15451;SDS011;7827;53.594;9.938;2023-03-24T09:35:56;9.95;;;2.65;;
15451;SDS011;7827;53.594;9.938;2023-03-24T09:38:27;5.32;;;1.95;;
15451;SDS011;7827;53.594;9.938;2023-03-24T09:40:57;4.82;;;1.90;;
15451;SDS011;7827;53.594;9.938;2023-03-24T09:43:30;7.45;;;2.50;;
15451;SDS011;7827;53.594;9.938;2023-03-24T09:46:08;12.15;;;2.80;;
15451;SDS011;7827;53.594;9.938;2023-03-24T09:48:42;11.70;;;2.80;;
15451;SDS011;7827;53.594;9.938;2023-03-24T09:51:19;15.40;;;2.72;;
15451;SDS011;7827;53.594;9.938;2023-03-24T09:53:51;16.17;;;2.70;;
15451;SDS011;7827;53.594;9.938;2023-03-24T09:56:29;8.93;;;2.80;;
15451;SDS011;7827;53.594;9.938;2023-03-24T09:59:03;8.70;;;2.90;;
15451;SDS011;7827;53.594;9.938;2023-03-24T10:01:38;10.40;;;2.60;;
15451;SDS011;7827;53.594;9.938;2023-03-24T10:04:10;14.30;;;3.10;;
15451;SDS011;7827;53.594;9.938;2023-03-24T10:06:43;10.95;;;2.90;;
15451;SDS011;7827;53.594;9.938;2023-03-24T10:09:22;9.27;;;2.80;;
15451;SDS011;7827;53.594;9.938;2023-03-24T10:14:54;9.38;;;3.40;;
15451;SDS011;7827;53.594;9.938;2023-03-24T10:17:39;11.02;;;2.67;;
15451;SDS011;7827;53.594;9.938;2023-03-24T10:20:22;10.02;;;3.38;;
15451;SDS011;7827;53.594;9.938;2023-03-24T10:23:02;5.90;;;2.50;;
15451;SDS011;7827;53.594;9.938;2023-03-24T10:25:48;10.65;;;2.78;;
15451;SDS011;7827;53.594;9.938;2023-03-24T10:28:23;10.73;;;3.22;;
15451;SDS011;7827;53.594;9.938;2023-03-24T10:31:03;6.55;;;2.53;;
15451;SDS011;7827;53.594;9.938;2023-03-24T10:33:39;12.38;;;2.50;;
15451;SDS011;7827;53.594;9.938;2023-03-24T10:36:11;12.07;;;2.40;;
15451;SDS011;7827;53.594;9.938;2023-03-24T10:38:43;6.00;;;2.15;;
15451;SDS011;7827;53.594;9.938;2023-03-24T10:41:13;7.47;;;2.53;;
15451;SDS011;7827;53.594;9.938;2023-03-24T10:43:46;5.13;;;2.10;;
15451;SDS011;7827;53.594;9.938;2023-03-24T10:46:19;11.10;;;2.78;;
15451;SDS011;7827;53.594;9.938;2023-03-24T10:48:52;8.32;;;2.45;;
15451;SDS011;7827;53.594;9.938;2023-03-24T10:51:36;8.52;;;2.60;;
15451;SDS011;7827;53.594;9.938;2023-03-24T10:54:10;7.75;;;2.50;;
15451;SDS011;7827;53.594;9.938;2023-03-24T10:56:44;8.35;;;2.42;;
15451;SDS011;7827;53.594;9.938;2023-03-24T10:59:18;9.13;;;2.78;;
15451;SDS011;7827;53.594;9.938;2023-03-24T11:01:59;10.18;;;2.30;;
15451;SDS011;7827;53.594;9.938;2023-03-24T11:04:47;10.70;;;2.40;;
15451;SDS011;7827;53.594;9.938;2023-03-24T11:07:22;12.07;;;2.25;;
15451;SDS011;7827;53.594;9.938;2023-03-24T11:09:57;9.93;;;2.33;;
15451;SDS011;7827;53.594;9.938;2023-03-24T11:12:31;13.05;;;2.67;;
15451;SDS011;7827;53.594;9.938;2023-03-24T11:15:12;8.18;;;2.40;;
15451;SDS011;7827;53.594;9.938;2023-03-24T11:17:51;11.07;;;2.53;;
15451;SDS011;7827;53.594;9.938;2023-03-24T11:20:28;11.32;;;3.08;;
15451;SDS011;7827;53.594;9.938;2023-03-24T11:23:00;8.98;;;2.47;;
15451;SDS011;7827;53.594;9.938;2023-03-24T11:25:34;5.78;;;2.70;;
15451;SDS011;7827;53.594;9.938;2023-03-24T11:28:07;5.90;;;2.13;;
15451;SDS011;7827;53.594;9.938;2023-03-24T11:30:43;12.40;;;2.78;;
15451;SDS011;7827;53.594;9.938;2023-03-24T11:33:19;9.88;;;2.40;;
15451;SDS011;7827;53.594;9.938;2023-03-24T11:36:06;8.82;;;2.30;;
15451;SDS011;7827;53.594;9.938;2023-03-24T11:39:14;8.98;;;2.92;;
15451;SDS011;7827;53.594;9.938;2023-03-24T11:44:43;9.48;;;2.78;;
15451;SDS011;7827;53.594;9.938;2023-03-24T11:47:23;7.35;;;2.45;;
15451;SDS011;7827;53.594;9.938;2023-03-24T11:50:00;5.45;;;2.30;;
15451;SDS011;7827;53.594;9.938;2023-03-24T11:52:46;10.05;;;2.10;;
15451;SDS011;7827;53.594;9.938;2023-03-24T11:55:21;10.93;;;2.47;;
15451;SDS011;7827;53.594;9.938;2023-03-24T11:58:01;9.82;;;2.72;;
15451;SDS011;7827;53.594;9.938;2023-03-24T12:00:41;7.55;;;2.20;;
15451;SDS011;7827;53.594;9.938;2023-03-24T12:03:27;10.75;;;2.58;;
15451;SDS011;7827;53.594;9.938;2023-03-24T12:06:32;9.15;;;2.53;;
15451;SDS011;7827;53.594;9.938;2023-03-24T12:09:19;7.78;;;2.88;;
15451;SDS011;7827;53.594;9.938;2023-03-24T12:12:01;11.38;;;3.28;;
15451;SDS011;7827;53.594;9.938;2023-03-24T12:15:02;8.95;;;2.88;;
15451;SDS011;7827;53.594;9.938;2023-03-24T12:17:56;11.07;;;2.60;;
15451;SDS011;7827;53.594;9.938;2023-03-24T12:20:43;9.98;;;2.60;;
15451;SDS011;7827;53.594;9.938;2023-03-24T12:23:25;10.57;;;3.03;;
15451;SDS011;7827;53.594;9.938;2023-03-24T12:26:09;12.10;;;2.88;;
15451;SDS011;7827;53.594;9.938;2023-03-24T12:28:49;12.00;;;2.95;;
15451;SDS011;7827;53.594;9.938;2023-03-24T12:31:27;10.45;;;3.13;;
15451;SDS011;7827;53.594;9.938;2023-03-24T12:34:25;10.48;;;2.67;;
15451;SDS011;7827;53.594;9.938;2023-03-24T12:37:22;6.90;;;2.47;;
15451;SDS011;7827;53.594;9.938;2023-03-24T12:40:25;9.82;;;2.80;;
15451;SDS011;7827;53.594;9.938;2023-03-24T12:43:25;11.30;;;2.95;;
15451;SDS011;7827;53.594;9.938;2023-03-24T12:46:09;10.85;;;3.22;;
15451;SDS011;7827;53.594;9.938;2023-03-24T12:49:16;10.85;;;3.15;;
15451;SDS011;7827;53.594;9.938;2023-03-24T12:52:09;11.60;;;2.85;;
15451;SDS011;7827;53.594;9.938;2023-03-24T12:54:52;11.38;;;3.03;;
15451;SDS011;7827;53.594;9.938;2023-03-24T12:57:33;9.23;;;2.60;;
15451;SDS011;7827;53.594;9.938;2023-03-24T13:00:11;11.02;;;2.88;;
15451;SDS011;7827;53.594;9.938;2023-03-24T13:02:47;10.63;;;2.88;;
15451;SDS011;7827;53.594;9.938;2023-03-24T13:05:21;7.15;;;2.25;;
15451;SDS011;7827;53.594;9.938;2023-03-24T13:07:58;14.25;;;3.00;;
15451;SDS011;7827;53.594;9.938;2023-03-24T13:10:32;10.07;;;2.95;;
15451;SDS011;7827;53.594;9.938;2023-03-24T13:13:07;8.98;;;2.58;;
15451;SDS011;7827;53.594;9.938;2023-03-24T13:15:44;9.10;;;2.60;;
15451;SDS011;7827;53.594;9.938;2023-03-24T13:18:20;10.65;;;2.85;;
15451;SDS011;7827;53.594;9.938;2023-03-24T13:20:59;6.78;;;2.88;;
15451;SDS011;7827;53.594;9.938;2023-03-24T13:23:39;9.07;;;2.60;;
15451;SDS011;7827;53.594;9.938;2023-03-24T13:26:19;8.68;;;2.88;;
15451;SDS011;7827;53.594;9.938;2023-03-24T13:29:00;9.98;;;3.50;;
15451;SDS011;7827;53.594;9.938;2023-03-24T13:31:43;10.15;;;2.83;;
15451;SDS011;7827;53.594;9.938;2023-03-24T13:34:21;9.32;;;2.60;;
15451;SDS011;7827;53.594;9.938;2023-03-24T13:36:58;9.55;;;2.95;;
15451;SDS011;7827;53.594;9.938;2023-03-24T13:39:37;9.18;;;2.42;;
15451;SDS011;7827;53.594;9.938;2023-03-24T13:42:06;5.95;;;2.20;;
15451;SDS011;7827;53.594;9.938;2023-03-24T13:44:58;11.48;;;2.67;;
15451;SDS011;7827;53.594;9.938;2023-03-24T13:50:15;12.93;;;2.83;;
15451;SDS011;7827;53.594;9.938;2023-03-24T13:52:45;8.70;;;2.35;;
15451;SDS011;7827;53.594;9.938;2023-03-24T13:55:20;7.70;;;1.88;;
15451;SDS011;7827;53.594;9.938;2023-03-24T13:57:55;7.07;;;2.78;;
15451;SDS011;7827;53.594;9.938;2023-03-24T14:00:27;9.75;;;2.60;;
15451;SDS011;7827;53.594;9.938;2023-03-24T14:03:00;12.88;;;2.67;;
15451;SDS011;7827;53.594;9.938;2023-03-24T14:08:42;10.50;;;3.13;;
15451;SDS011;7827;53.594;9.938;2023-03-24T14:15:02;6.40;;;2.03;;
15451;SDS011;7827;53.594;9.938;2023-03-24T14:17:47;7.93;;;2.42;;
15451;SDS011;7827;53.594;9.938;2023-03-24T14:20:28;8.88;;;2.58;;
15451;SDS011;7827;53.594;9.938;2023-03-24T14:23:01;8.27;;;2.72;;
15451;SDS011;7827;53.594;9.938;2023-03-24T14:25:31;8.95;;;2.30;;
15451;SDS011;7827;53.594;9.938;2023-03-24T14:28:18;8.77;;;2.30;;
15451;SDS011;7827;53.594;9.938;2023-03-24T14:31:01;12.23;;;2.70;;
15451;SDS011;7827;53.594;9.938;2023-03-24T14:33:59;8.90;;;2.40;;
15451;SDS011;7827;53.594;9.938;2023-03-24T14:36:36;8.77;;;1.95;;
15451;SDS011;7827;53.594;9.938;2023-03-24T14:39:16;4.22;;;1.67;;
15451;SDS011;7827;53.594;9.938;2023-03-24T14:41:54;5.97;;;2.40;;
15451;SDS011;7827;53.594;9.938;2023-03-24T14:47:24;12.50;;;2.75;;
15451;SDS011;7827;53.594;9.938;2023-03-24T14:49:59;6.75;;;2.60;;
15451;SDS011;7827;53.594;9.938;2023-03-24T14:52:39;8.38;;;2.15;;
15451;SDS011;7827;53.594;9.938;2023-03-24T14:55:14;11.85;;;2.63;;
15451;SDS011;7827;53.594;9.938;2023-03-24T14:57:50;7.65;;;2.80;;
15451;SDS011;7827;53.594;9.938;2023-03-24T15:00:24;10.23;;;2.75;;
15451;SDS011;7827;53.594;9.938;2023-03-24T15:03:02;8.38;;;2.40;;
15451;SDS011;7827;53.594;9.938;2023-03-24T15:05:45;7.68;;;2.25;;
15451;SDS011;7827;53.594;9.938;2023-03-24T15:08:13;11.32;;;2.97;;
15451;SDS011;7827;53.594;9.938;2023-03-24T15:10:47;8.07;;;2.40;;
15451;SDS011;7827;53.594;9.938;2023-03-24T15:13:22;8.80;;;2.28;;
15451;SDS011;7827;53.594;9.938;2023-03-24T15:15:59;8.77;;;3.03;;
15451;SDS011;7827;53.594;9.938;2023-03-24T15:18:32;9.75;;;2.97;;
15451;SDS011;7827;53.594;9.938;2023-03-24T15:21:12;9.05;;;2.42;;
15451;SDS011;7827;53.594;9.938;2023-03-24T15:23:45;6.72;;;2.25;;
15451;SDS011;7827;53.594;9.938;2023-03-24T15:26:15;7.68;;;2.38;;
15451;SDS011;7827;53.594;9.938;2023-03-24T15:28:52;6.72;;;2.15;;
15451;SDS011;7827;53.594;9.938;2023-03-24T15:31:25;6.95;;;2.35;;
15451;SDS011;7827;53.594;9.938;2023-03-24T15:34:03;9.23;;;2.55;;
15451;SDS011;7827;53.594;9.938;2023-03-24T15:36:51;7.65;;;2.13;;
15451;SDS011;7827;53.594;9.938;2023-03-24T15:39:24;7.40;;;2.40;;
15451;SDS011;7827;53.594;9.938;2023-03-24T15:41:55;9.15;;;2.60;;
15451;SDS011;7827;53.594;9.938;2023-03-24T15:44:24;6.75;;;1.98;;
15451;SDS011;7827;53.594;9.938;2023-03-24T15:46:58;6.75;;;2.30;;
15451;SDS011;7827;53.594;9.938;2023-03-24T15:49:29;8.00;;;2.35;;
15451;SDS011;7827;53.594;9.938;2023-03-24T15:52:01;9.40;;;2.60;;
15451;SDS011;7827;53.594;9.938;2023-03-24T15:54:50;10.82;;;2.45;;
15451;SDS011;7827;53.594;9.938;2023-03-24T15:57:21;6.28;;;2.45;;
15451;SDS011;7827;53.594;9.938;2023-03-24T15:59:55;8.38;;;2.88;;
15451;SDS011;7827;53.594;9.938;2023-03-24T16:02:39;10.68;;;2.30;;
15451;SDS011;7827;53.594;9.938;2023-03-24T16:05:16;9.15;;;2.47;;
15451;SDS011;7827;53.594;9.938;2023-03-24T16:07:52;11.13;;;2.47;;
15451;SDS011;7827;53.594;9.938;2023-03-24T16:10:27;8.75;;;2.53;;
15451;SDS011;7827;53.594;9.938;2023-03-24T16:13:03;6.68;;;2.42;;
15451;SDS011;7827;53.594;9.938;2023-03-24T16:15:43;8.95;;;2.30;;
15451;SDS011;7827;53.594;9.938;2023-03-24T16:18:16;10.07;;;2.70;;
15451;SDS011;7827;53.594;9.938;2023-03-24T16:20:49;9.23;;;3.13;;
15451;SDS011;7827;53.594;9.938;2023-03-24T16:23:18;7.82;;;2.63;;